TimeCST,TemperatureF,Dew PointF,Humidity,Sea Level PressureIn,VisibilityMPH,Wind Direction,Wind SpeedMPH,Gust SpeedMPH,PrecipitationIn,Events,Conditions,WindDirDegrees,DateUTC
12:15 AM,37.4,33.8,87,29.69,10.0,SE,15.0,-,N/A,,Overcast,140,2013-02-10 06:15:00
12:35 AM,37.4,33.8,87,29.68,9.0,SE,13.8,-,N/A,,Overcast,140,2013-02-10 06:35:00
12:55 AM,37.4,33.8,87,29.67,10.0,SE,16.1,21.9,N/A,,Overcast,140,2013-02-10 06:55:00
1:15 AM,37.4,33.8,87,29.67,9.0,SE,13.8,19.6,N/A,,Overcast,140,2013-02-10 07:15:00
1:35 AM,37.4,35.6,93,29.66,6.0,SE,16.1,24.2,N/A,,Mist,140,2013-02-10 07:35:00
1:55 AM,37.4,35.6,93,29.54,4.0,East,21.9,-,0.01,Rain,Light Rain,100,2013-02-10 07:55:00
2:15 AM,37.4,35.6,93,29.61,4.0,SSE,18.4,-,N/A,Rain,Light Rain,150,2013-02-10 08:15:00
2:35 AM,37.4,37.4,100,29.60,4.0,SE,17.3,23.0,N/A,,Overcast,140,2013-02-10 08:35:00
2:55 AM,37.4,37.4,100,29.57,2.0,SE,17.3,24.2,N/A,,Overcast,140,2013-02-10 08:55:00
3:15 AM,37.4,37.4,100,29.55,1.5,SE,19.6,25.3,N/A,Rain,Light Rain,130,2013-02-10 09:15:00
3:55 AM,37.4,37.4,100,29.49,1.2,SE,20.7,29.9,N/A,,Mist,130,2013-02-10 09:55:00
4:15 AM,37.4,37.4,100,29.46,1.5,SE,21.9,28.8,N/A,Rain,Light Rain,130,2013-02-10 10:15:00
4:35 AM,37.4,37.4,100,29.46,1.5,SE,19.6,28.8,N/A,,Overcast,140,2013-02-10 10:35:00
4:55 AM,37.4,37.4,100,29.42,1.2,SE,21.9,-,N/A,,Overcast,130,2013-02-10 10:55:00
5:15 AM,39.2,39.2,100,29.41,1.2,SE,21.9,28.8,N/A,,Overcast,140,2013-02-10 11:15:00
5:35 AM,39.2,39.2,100,29.39,1.8,SE,24.2,29.9,N/A,,Overcast,140,2013-02-10 11:35:00
5:55 AM,39.2,39.2,100,29.40,2.0,SSE,20.7,-,N/A,,Overcast,150,2013-02-10 11:55:00
6:15 AM,39.2,39.2,100,29.39,1.5,SSE,20.7,-,N/A,Rain,Light Rain,150,2013-02-10 12:15:00
6:35 AM,39.2,39.2,100,29.39,2.5,SSE,19.6,-,N/A,Rain,Light Rain,160,2013-02-10 12:35:00
6:55 AM,39.2,39.2,100,29.37,3.0,SSE,18.4,27.6,N/A,Rain,Light Rain,160,2013-02-10 12:55:00
7:15 AM,41.0,41.0,100,29.38,6.0,SSE,16.1,26.5,N/A,,Mist,160,2013-02-10 13:15:00
7:35 AM,41.0,41.0,100,29.38,5.0,SSE,18.4,25.3,N/A,,Overcast,160,2013-02-10 13:35:00
7:55 AM,41.0,41.0,100,29.36,5.0,SSE,16.1,-,N/A,,Overcast,150,2013-02-10 13:55:00
8:15 AM,41.0,41.0,100,29.35,6.0,SSE,15.0,21.9,N/A,,Overcast,150,2013-02-10 14:15:00
8:35 AM,42.8,42.8,100,29.34,7.0,SE,12.7,-,N/A,,Overcast,140,2013-02-10 14:35:00
8:55 AM,42.8,42.8,100,29.31,8.0,SE,15.0,20.7,N/A,,Overcast,140,2013-02-10 14:55:00
9:15 AM,42.8,42.8,100,29.30,9.0,SSE,17.3,23.0,N/A,,Overcast,150,2013-02-10 15:15:00
9:35 AM,44.6,42.8,93,29.28,10.0,SSE,17.3,24.2,N/A,,Overcast,160,2013-02-10 15:35:00
9:55 AM,46.4,42.8,87,29.27,10.0,South,23.0,-,N/A,,Overcast,180,2013-02-10 15:55:00
10:15 AM,46.4,41.0,81,29.26,10.0,South,19.6,29.9,N/A,,Mostly Cloudy,190,2013-02-10 16:15:00
10:35 AM,44.6,35.6,71,29.26,10.0,SSW,26.5,34.5,N/A,,Mostly Cloudy,210,2013-02-10 16:35:00
10:55 AM,44.6,35.6,71,29.26,10.0,SW,27.6,35.7,N/A,,Mostly Cloudy,220,2013-02-10 16:55:00
11:15 AM,41.0,33.8,76,29.27,10.0,SW,26.5,34.5,N/A,,Overcast,220,2013-02-10 17:15:00
11:35 AM,41.0,32.0,70,29.27,10.0,SW,24.2,35.7,N/A,,Overcast,220,2013-02-10 17:35:00
11:55 AM,39.2,32.0,75,29.27,10.0,SSW,25.3,35.7,N/A,,Overcast,210,2013-02-10 17:55:00
12:15 PM,39.2,32.0,75,29.28,10.0,SW,19.6,28.8,N/A,,Overcast,220,2013-02-10 18:15:00
12:35 PM,39.2,32.0,75,29.27,10.0,SSW,17.3,-,N/A,,Overcast,210,2013-02-10 18:35:00
12:55 PM,37.4,32.0,81,29.27,10.0,SSW,20.7,35.7,N/A,,Overcast,210,2013-02-10 18:55:00
1:15 PM,37.4,32.0,81,29.27,10.0,SSW,21.9,29.9,N/A,,Overcast,210,2013-02-10 19:15:00
1:35 PM,37.4,32.0,81,29.26,10.0,SSW,18.4,31.1,N/A,,Overcast,210,2013-02-10 19:35:00
1:55 PM,37.4,33.8,87,29.26,10.0,SSW,17.3,25.3,N/A,,Overcast,200,2013-02-10 19:55:00
2:15 PM,37.4,35.6,93,29.26,6.0,SSW,16.1,25.3,N/A,,Overcast,210,2013-02-10 20:15:00
2:35 PM,35.6,35.6,100,29.27,1.0,SW,15.0,24.2,N/A,Rain,Light Rain,220,2013-02-10 20:35:00
2:55 PM,35.6,35.6,100,29.28,2.0,SW,13.8,-,N/A,Rain,Light Rain,230,2013-02-10 20:55:00
3:15 PM,37.4,37.4,100,29.29,2.5,WSW,18.4,-,N/A,,Overcast,240,2013-02-10 21:15:00
3:35 PM,37.4,37.4,100,29.31,7.0,West,24.2,32.2,N/A,,Overcast,270,2013-02-10 21:35:00
3:55 PM,37.4,35.6,93,29.32,10.0,WNW,26.5,34.5,N/A,,Overcast,290,2013-02-10 21:55:00
4:15 PM,37.4,33.8,87,29.35,10.0,West,21.9,34.5,N/A,,Overcast,280,2013-02-10 22:15:00
4:35 PM,37.4,32.0,81,29.38,10.0,WNW,23.0,36.8,N/A,Rain,Light Rain,290,2013-02-10 22:35:00
4:55 PM,35.6,30.2,81,29.41,4.0,West,26.5,40.3,N/A,Snow,Light Snow,280,2013-02-10 22:55:00
5:15 PM,33.8,30.2,87,29.44,2.0,North,-9999.0,-,N/A,Snow,Light Snow,0,2013-02-10 23:15:00
5:35 PM,33.8,30.2,87,29.45,5.0,West,19.6,38.0,N/A,Snow,Light Snow,270,2013-02-10 23:35:00
5:55 PM,33.8,26.6,75,29.48,10.0,West,27.6,38.0,N/A,,Overcast,280,2013-02-10 23:55:00
6:15 PM,33.8,26.6,75,29.49,10.0,WNW,19.6,39.1,N/A,,Overcast,290,2013-02-11 00:15:00
6:35 PM,32.0,24.8,75,29.51,10.0,West,21.9,41.4,N/A,,Overcast,280,2013-02-11 00:35:00
6:55 PM,32.0,24.8,75,29.53,10.0,West,26.5,33.4,N/A,Rain,Light Rain,280,2013-02-11 00:55:00
7:15 PM,32.0,24.8,75,29.55,10.0,WNW,19.6,29.9,N/A,,Overcast,290,2013-02-11 01:15:00
7:35 PM,32.0,24.8,75,29.56,10.0,WNW,25.3,31.1,N/A,,Overcast,300,2013-02-11 01:35:00
7:55 PM,32.0,24.8,75,29.58,10.0,WNW,24.2,34.5,N/A,,Overcast,290,2013-02-11 01:55:00
8:15 PM,32.0,23.0,69,29.58,10.0,WNW,26.5,42.6,N/A,,Overcast,300,2013-02-11 02:15:00
8:35 PM,32.0,23.0,69,29.60,10.0,WNW,21.9,34.5,N/A,,Overcast,290,2013-02-11 02:35:00
8:55 PM,32.0,23.0,69,29.61,10.0,WNW,31.1,41.4,N/A,,Overcast,300,2013-02-11 02:55:00
9:15 PM,32.0,23.0,69,29.62,10.0,WNW,25.3,33.4,N/A,,Overcast,300,2013-02-11 03:15:00
9:35 PM,32.0,23.0,69,29.64,10.0,NW,21.9,43.7,N/A,,Overcast,310,2013-02-11 03:35:00
9:55 PM,32.0,23.0,69,29.66,10.0,WNW,19.6,32.2,N/A,,Overcast,300,2013-02-11 03:55:00
10:15 PM,32.0,23.0,69,29.68,10.0,WNW,21.9,39.1,N/A,,Overcast,300,2013-02-11 04:15:00
10:35 PM,32.0,23.0,69,29.70,10.0,WNW,26.5,33.4,N/A,,Overcast,290,2013-02-11 04:35:00
10:55 PM,32.0,23.0,69,29.71,10.0,WNW,25.3,34.5,N/A,,Overcast,290,2013-02-11 04:55:00
11:15 PM,30.2,23.0,75,29.72,10.0,WNW,21.9,40.3,N/A,,Overcast,290,2013-02-11 05:15:00
11:35 PM,30.2,23.0,75,29.74,10.0,WNW,26.5,36.8,N/A,,Overcast,290,2013-02-11 05:35:00
11:55 PM,30.2,21.2,69,29.75,10.0,WNW,23.0,33.4,N/A,,Overcast,300,2013-02-11 05:55:00